sensor_id;sensor_type;location;lat;lon;timestamp;temperature;humidity
15700;DHT22;7950;42.744;23.174;2022-09-24T00:01:08;6.30;99.90
15700;DHT22;7950;42.744;23.174;2022-09-24T00:03:50;6.40;99.90
15700;DHT22;7950;42.744;23.174;2022-09-24T00:06:21;6.40;99.90
15700;DHT22;7950;42.744;23.174;2022-09-24T00:08:52;6.40;99.90
15700;DHT22;7950;42.744;23.174;2022-09-24T00:11:21;6.40;99.90
15700;DHT22;7950;42.744;23.174;2022-09-24T00:13:51;6.30;99.90
15700;DHT22;7950;42.744;23.174;2022-09-24T00:16:20;6.20;99.90
15700;DHT22;7950;42.744;23.174;2022-09-24T00:19:03;6.20;99.90
15700;DHT22;7950;42.744;23.174;2022-09-24T00:21:38;6.20;99.90
15700;DHT22;7950;42.744;23.174;2022-09-24T00:24:08;6.20;99.90
15700;DHT22;7950;42.744;23.174;2022-09-24T00:26:37;6.20;99.90
15700;DHT22;7950;42.744;23.174;2022-09-24T00:29:22;6.20;99.90
15700;DHT22;7950;42.744;23.174;2022-09-24T00:31:51;6.20;99.90
15700;DHT22;7950;42.744;23.174;2022-09-24T00:34:21;6.10;99.90
15700;DHT22;7950;42.744;23.174;2022-09-24T00:36:50;6.10;99.90
15700;DHT22;7950;42.744;23.174;2022-09-24T00:39:19;6.10;99.90
15700;DHT22;7950;42.744;23.174;2022-09-24T00:41:47;6.00;99.90
15700;DHT22;7950;42.744;23.174;2022-09-24T00:44:53;6.00;99.90
15700;DHT22;7950;42.744;23.174;2022-09-24T00:47:30;5.90;99.90
15700;DHT22;7950;42.744;23.174;2022-09-24T00:50:09;5.80;99.90
15700;DHT22;7950;42.744;23.174;2022-09-24T00:52:43;5.80;99.90
15700;DHT22;7950;42.744;23.174;2022-09-24T00:55:13;5.70;99.90
15700;DHT22;7950;42.744;23.174;2022-09-24T00:57:42;5.60;99.90
15700;DHT22;7950;42.744;23.174;2022-09-24T01:00:12;5.60;99.90
15700;DHT22;7950;42.744;23.174;2022-09-24T01:02:43;5.50;99.90
15700;DHT22;7950;42.744;23.174;2022-09-24T01:05:15;5.50;99.90
15700;DHT22;7950;42.744;23.174;2022-09-24T01:07:44;5.40;99.90
15700;DHT22;7950;42.744;23.174;2022-09-24T01:10:15;5.40;99.90
15700;DHT22;7950;42.744;23.174;2022-09-24T01:13:11;5.30;99.90
15700;DHT22;7950;42.744;23.174;2022-09-24T01:16:00;5.30;99.90
15700;DHT22;7950;42.744;23.174;2022-09-24T01:18:36;5.30;99.90
15700;DHT22;7950;42.744;23.174;2022-09-24T01:21:29;5.30;99.90
15700;DHT22;7950;42.744;23.174;2022-09-24T01:27:16;5.20;99.90
15700;DHT22;7950;42.744;23.174;2022-09-24T01:29:55;5.10;99.90
15700;DHT22;7950;42.744;23.174;2022-09-24T01:32:29;5.10;99.90
15700;DHT22;7950;42.744;23.174;2022-09-24T01:35:08;5.00;99.90
15700;DHT22;7950;42.744;23.174;2022-09-24T01:37:42;5.00;99.90
15700;DHT22;7950;42.744;23.174;2022-09-24T01:40:11;4.90;99.90
15700;DHT22;7950;42.744;23.174;2022-09-24T01:42:42;4.90;99.90
15700;DHT22;7950;42.744;23.174;2022-09-24T01:45:13;4.80;99.90
15700;DHT22;7950;42.744;23.174;2022-09-24T01:47:49;4.80;99.90
15700;DHT22;7950;42.744;23.174;2022-09-24T01:50:18;4.80;99.90
15700;DHT22;7950;42.744;23.174;2022-09-24T01:52:51;4.70;99.90
15700;DHT22;7950;42.744;23.174;2022-09-24T01:55:24;4.60;99.90
15700;DHT22;7950;42.744;23.174;2022-09-24T01:57:57;4.60;99.90
15700;DHT22;7950;42.744;23.174;2022-09-24T02:00:28;4.50;99.90
15700;DHT22;7950;42.744;23.174;2022-09-24T02:03:01;4.50;99.90
15700;DHT22;7950;42.744;23.174;2022-09-24T02:05:35;4.50;99.90
15700;DHT22;7950;42.744;23.174;2022-09-24T02:08:07;4.50;99.90
15700;DHT22;7950;42.744;23.174;2022-09-24T02:10:40;4.50;99.90
15700;DHT22;7950;42.744;23.174;2022-09-24T02:13:15;4.50;99.90
15700;DHT22;7950;42.744;23.174;2022-09-24T02:15:49;4.50;99.90
15700;DHT22;7950;42.744;23.174;2022-09-24T02:18:20;4.40;99.90
15700;DHT22;7950;42.744;23.174;2022-09-24T02:20:50;4.40;99.90
15700;DHT22;7950;42.744;23.174;2022-09-24T02:23:19;4.30;99.90
15700;DHT22;7950;42.744;23.174;2022-09-24T02:25:50;4.30;99.90
15700;DHT22;7950;42.744;23.174;2022-09-24T02:28:20;4.20;99.90
15700;DHT22;7950;42.744;23.174;2022-09-24T02:30:54;4.20;99.90
15700;DHT22;7950;42.744;23.174;2022-09-24T02:33:25;4.10;99.90
15700;DHT22;7950;42.744;23.174;2022-09-24T02:36:11;4.10;99.90
15700;DHT22;7950;42.744;23.174;2022-09-24T02:38:40;4.10;99.90
15700;DHT22;7950;42.744;23.174;2022-09-24T02:41:09;4.00;99.90
15700;DHT22;7950;42.744;23.174;2022-09-24T02:43:38;4.00;99.90
15700;DHT22;7950;42.744;23.174;2022-09-24T02:46:08;3.90;99.90
15700;DHT22;7950;42.744;23.174;2022-09-24T02:48:37;3.80;99.90
15700;DHT22;7950;42.744;23.174;2022-09-24T02:51:05;3.80;99.90
15700;DHT22;7950;42.744;23.174;2022-09-24T02:53:34;3.80;99.90
15700;DHT22;7950;42.744;23.174;2022-09-24T02:56:03;3.80;99.90
15700;DHT22;7950;42.744;23.174;2022-09-24T02:58:31;3.80;99.90
15700;DHT22;7950;42.744;23.174;2022-09-24T03:00:59;3.70;99.90
15700;DHT22;7950;42.744;23.174;2022-09-24T03:03:29;3.70;99.90
15700;DHT22;7950;42.744;23.174;2022-09-24T03:05:57;3.70;99.90
15700;DHT22;7950;42.744;23.174;2022-09-24T03:08:26;3.70;99.90
15700;DHT22;7950;42.744;23.174;2022-09-24T03:10:54;3.60;99.90
15700;DHT22;7950;42.744;23.174;2022-09-24T03:13:23;3.60;99.90
15700;DHT22;7950;42.744;23.174;2022-09-24T03:15:51;3.60;99.90
15700;DHT22;7950;42.744;23.174;2022-09-24T03:18:20;3.60;99.90
15700;DHT22;7950;42.744;23.174;2022-09-24T03:20:57;3.60;99.90
15700;DHT22;7950;42.744;23.174;2022-09-24T03:23:26;3.60;99.90
15700;DHT22;7950;42.744;23.174;2022-09-24T03:25:55;3.60;99.90
15700;DHT22;7950;42.744;23.174;2022-09-24T03:28:28;3.50;99.90
15700;DHT22;7950;42.744;23.174;2022-09-24T03:30:56;3.60;99.90
15700;DHT22;7950;42.744;23.174;2022-09-24T03:33:27;3.60;99.90
15700;DHT22;7950;42.744;23.174;2022-09-24T03:35:58;3.50;99.90
15700;DHT22;7950;42.744;23.174;2022-09-24T03:38:28;3.50;99.90
15700;DHT22;7950;42.744;23.174;2022-09-24T03:40:57;3.40;99.90
15700;DHT22;7950;42.744;23.174;2022-09-24T03:43:26;3.40;99.90
15700;DHT22;7950;42.744;23.174;2022-09-24T03:45:54;3.40;99.90
15700;DHT22;7950;42.744;23.174;2022-09-24T03:48:23;3.50;99.90
15700;DHT22;7950;42.744;23.174;2022-09-24T03:50:52;3.50;99.90
15700;DHT22;7950;42.744;23.174;2022-09-24T03:53:22;3.40;99.90
15700;DHT22;7950;42.744;23.174;2022-09-24T03:55:54;3.40;99.90
15700;DHT22;7950;42.744;23.174;2022-09-24T03:58:23;3.40;99.90
15700;DHT22;7950;42.744;23.174;2022-09-24T04:00:52;3.30;99.90
15700;DHT22;7950;42.744;23.174;2022-09-24T04:03:21;3.40;99.90
15700;DHT22;7950;42.744;23.174;2022-09-24T04:05:50;3.40;99.90
15700;DHT22;7950;42.744;23.174;2022-09-24T04:08:18;3.40;99.90
15700;DHT22;7950;42.744;23.174;2022-09-24T04:10:49;3.30;99.90
15700;DHT22;7950;42.744;23.174;2022-09-24T04:13:18;3.20;99.90
15700;DHT22;7950;42.744;23.174;2022-09-24T04:15:47;3.10;99.90
15700;DHT22;7950;42.744;23.174;2022-09-24T04:18:16;3.10;99.90
15700;DHT22;7950;42.744;23.174;2022-09-24T04:20:45;3.10;99.90
15700;DHT22;7950;42.744;23.174;2022-09-24T04:23:14;3.00;99.90
15700;DHT22;7950;42.744;23.174;2022-09-24T04:25:43;3.00;99.90
15700;DHT22;7950;42.744;23.174;2022-09-24T04:28:22;3.10;99.90
15700;DHT22;7950;42.744;23.174;2022-09-24T04:30:50;3.10;99.90
15700;DHT22;7950;42.744;23.174;2022-09-24T04:33:18;3.10;99.90
15700;DHT22;7950;42.744;23.174;2022-09-24T04:36:12;3.10;99.90
15700;DHT22;7950;42.744;23.174;2022-09-24T04:38:40;3.10;99.90
15700;DHT22;7950;42.744;23.174;2022-09-24T04:41:09;3.10;99.90
15700;DHT22;7950;42.744;23.174;2022-09-24T04:43:39;3.10;99.90
15700;DHT22;7950;42.744;23.174;2022-09-24T04:46:08;3.10;99.90
15700;DHT22;7950;42.744;23.174;2022-09-24T04:48:36;3.10;99.90
15700;DHT22;7950;42.744;23.174;2022-09-24T04:51:05;3.20;99.90
15700;DHT22;7950;42.744;23.174;2022-09-24T04:53:34;3.30;99.90
15700;DHT22;7950;42.744;23.174;2022-09-24T04:56:04;3.30;99.90
15700;DHT22;7950;42.744;23.174;2022-09-24T04:58:39;3.40;99.90
15700;DHT22;7950;42.744;23.174;2022-09-24T05:01:07;3.50;99.90
15700;DHT22;7950;42.744;23.174;2022-09-24T05:03:36;3.50;99.90
15700;DHT22;7950;42.744;23.174;2022-09-24T05:06:05;3.60;99.90
15700;DHT22;7950;42.744;23.174;2022-09-24T05:08:33;3.70;99.90
15700;DHT22;7950;42.744;23.174;2022-09-24T05:11:26;3.90;99.90
15700;DHT22;7950;42.744;23.174;2022-09-24T05:13:56;4.10;99.90
15700;DHT22;7950;42.744;23.174;2022-09-24T05:16:24;4.20;99.90
15700;DHT22;7950;42.744;23.174;2022-09-24T05:18:53;4.30;99.90
15700;DHT22;7950;42.744;23.174;2022-09-24T05:21:46;4.40;99.90
15700;DHT22;7950;42.744;23.174;2022-09-24T05:24:39;4.70;99.90
15700;DHT22;7950;42.744;23.174;2022-09-24T05:27:08;5.00;99.90
15700;DHT22;7950;42.744;23.174;2022-09-24T05:29:38;5.20;99.90
15700;DHT22;7950;42.744;23.174;2022-09-24T05:32:11;5.40;99.90
15700;DHT22;7950;42.744;23.174;2022-09-24T05:34:42;5.70;99.90
15700;DHT22;7950;42.744;23.174;2022-09-24T05:37:17;6.00;99.90
15700;DHT22;7950;42.744;23.174;2022-09-24T05:39:45;6.20;99.90
15700;DHT22;7950;42.744;23.174;2022-09-24T05:42:13;6.50;99.90
15700;DHT22;7950;42.744;23.174;2022-09-24T05:44:43;6.70;99.90
15700;DHT22;7950;42.744;23.174;2022-09-24T05:47:18;6.80;99.90
15700;DHT22;7950;42.744;23.174;2022-09-24T05:49:46;7.00;99.90
15700;DHT22;7950;42.744;23.174;2022-09-24T05:52:14;7.10;99.90
15700;DHT22;7950;42.744;23.174;2022-09-24T05:54:42;7.30;99.90
15700;DHT22;7950;42.744;23.174;2022-09-24T05:57:10;7.40;99.90
15700;DHT22;7950;42.744;23.174;2022-09-24T05:59:42;7.50;99.90
15700;DHT22;7950;42.744;23.174;2022-09-24T06:02:11;7.60;99.90
15700;DHT22;7950;42.744;23.174;2022-09-24T06:04:39;7.80;99.90
15700;DHT22;7950;42.744;23.174;2022-09-24T06:07:07;7.90;99.90
15700;DHT22;7950;42.744;23.174;2022-09-24T06:09:36;8.00;99.90
15700;DHT22;7950;42.744;23.174;2022-09-24T06:12:06;8.10;99.90
15700;DHT22;7950;42.744;23.174;2022-09-24T06:14:36;8.30;99.90
15700;DHT22;7950;42.744;23.174;2022-09-24T06:17:06;8.40;99.90
15700;DHT22;7950;42.744;23.174;2022-09-24T06:19:34;8.50;99.90
15700;DHT22;7950;42.744;23.174;2022-09-24T06:22:03;8.60;99.90
15700;DHT22;7950;42.744;23.174;2022-09-24T06:24:31;8.90;99.90
15700;DHT22;7950;42.744;23.174;2022-09-24T06:27:00;9.10;99.90
15700;DHT22;7950;42.744;23.174;2022-09-24T06:29:28;9.30;99.90
15700;DHT22;7950;42.744;23.174;2022-09-24T06:31:57;9.50;99.90
15700;DHT22;7950;42.744;23.174;2022-09-24T06:34:27;9.70;99.90
15700;DHT22;7950;42.744;23.174;2022-09-24T06:36:55;9.90;99.90
15700;DHT22;7950;42.744;23.174;2022-09-24T06:39:24;9.90;99.90
15700;DHT22;7950;42.744;23.174;2022-09-24T06:41:52;10.00;99.90
15700;DHT22;7950;42.744;23.174;2022-09-24T06:44:21;10.20;99.90
15700;DHT22;7950;42.744;23.174;2022-09-24T06:46:50;10.50;99.90
15700;DHT22;7950;42.744;23.174;2022-09-24T06:49:44;10.70;99.90
15700;DHT22;7950;42.744;23.174;2022-09-24T06:52:16;10.70;99.90
15700;DHT22;7950;42.744;23.174;2022-09-24T06:54:44;10.70;99.90
15700;DHT22;7950;42.744;23.174;2022-09-24T06:57:12;10.60;99.90
15700;DHT22;7950;42.744;23.174;2022-09-24T06:59:40;10.60;99.90
15700;DHT22;7950;42.744;23.174;2022-09-24T07:02:09;10.70;99.90
15700;DHT22;7950;42.744;23.174;2022-09-24T07:04:37;10.80;99.90
15700;DHT22;7950;42.744;23.174;2022-09-24T07:07:07;11.00;99.90
15700;DHT22;7950;42.744;23.174;2022-09-24T07:09:52;11.30;99.90
15700;DHT22;7950;42.744;23.174;2022-09-24T07:12:21;11.40;99.90
15700;DHT22;7950;42.744;23.174;2022-09-24T07:14:49;11.50;99.90
15700;DHT22;7950;42.744;23.174;2022-09-24T07:17:17;11.60;99.90
15700;DHT22;7950;42.744;23.174;2022-09-24T07:19:46;11.70;99.90
15700;DHT22;7950;42.744;23.174;2022-09-24T07:22:16;11.90;99.90
15700;DHT22;7950;42.744;23.174;2022-09-24T07:24:44;12.00;99.90
15700;DHT22;7950;42.744;23.174;2022-09-24T07:27:12;12.30;99.90
15700;DHT22;7950;42.744;23.174;2022-09-24T07:29:41;12.40;99.90
15700;DHT22;7950;42.744;23.174;2022-09-24T07:32:09;12.50;99.90
15700;DHT22;7950;42.744;23.174;2022-09-24T07:34:39;12.60;99.90
15700;DHT22;7950;42.744;23.174;2022-09-24T07:37:07;12.90;99.90
15700;DHT22;7950;42.744;23.174;2022-09-24T07:39:36;12.90;99.90
15700;DHT22;7950;42.744;23.174;2022-09-24T07:42:05;12.90;99.90
15700;DHT22;7950;42.744;23.174;2022-09-24T07:44:33;12.90;99.90
15700;DHT22;7950;42.744;23.174;2022-09-24T07:47:02;12.90;99.90
15700;DHT22;7950;42.744;23.174;2022-09-24T07:49:31;13.00;99.90
15700;DHT22;7950;42.744;23.174;2022-09-24T07:52:00;13.00;99.90
15700;DHT22;7950;42.744;23.174;2022-09-24T07:54:29;13.20;99.90
15700;DHT22;7950;42.744;23.174;2022-09-24T07:56:58;13.30;99.90
15700;DHT22;7950;42.744;23.174;2022-09-24T07:59:28;13.20;99.90
15700;DHT22;7950;42.744;23.174;2022-09-24T08:01:57;13.20;99.90
15700;DHT22;7950;42.744;23.174;2022-09-24T08:04:25;13.40;99.90
15700;DHT22;7950;42.744;23.174;2022-09-24T08:06:53;13.70;99.90
15700;DHT22;7950;42.744;23.174;2022-09-24T08:09:22;13.90;99.90
15700;DHT22;7950;42.744;23.174;2022-09-24T08:11:50;14.20;99.90
15700;DHT22;7950;42.744;23.174;2022-09-24T08:14:20;14.50;99.90
15700;DHT22;7950;42.744;23.174;2022-09-24T08:16:48;14.60;99.90
15700;DHT22;7950;42.744;23.174;2022-09-24T08:19:16;14.70;99.90
15700;DHT22;7950;42.744;23.174;2022-09-24T08:21:44;14.90;99.90
15700;DHT22;7950;42.744;23.174;2022-09-24T08:24:14;15.00;99.90
15700;DHT22;7950;42.744;23.174;2022-09-24T08:26:43;15.20;99.90
15700;DHT22;7950;42.744;23.174;2022-09-24T08:29:11;15.30;99.90
15700;DHT22;7950;42.744;23.174;2022-09-24T08:31:41;15.40;99.90
15700;DHT22;7950;42.744;23.174;2022-09-24T08:34:09;15.40;99.90
15700;DHT22;7950;42.744;23.174;2022-09-24T08:36:38;15.60;99.90
15700;DHT22;7950;42.744;23.174;2022-09-24T08:39:09;15.80;99.60
15700;DHT22;7950;42.744;23.174;2022-09-24T08:42:04;15.90;98.60
15700;DHT22;7950;42.744;23.174;2022-09-24T08:44:37;15.80;98.50
15700;DHT22;7950;42.744;23.174;2022-09-24T08:47:34;16.00;98.60
15700;DHT22;7950;42.744;23.174;2022-09-24T08:50:11;16.10;97.10
15700;DHT22;7950;42.744;23.174;2022-09-24T08:52:49;16.20;96.10
15700;DHT22;7950;42.744;23.174;2022-09-24T08:55:45;16.30;97.20
15700;DHT22;7950;42.744;23.174;2022-09-24T08:58:28;16.50;94.50
15700;DHT22;7950;42.744;23.174;2022-09-24T09:01:26;16.60;93.80
15700;DHT22;7950;42.744;23.174;2022-09-24T09:04:26;16.70;94.60
15700;DHT22;7950;42.744;23.174;2022-09-24T09:07:07;17.00;94.30
15700;DHT22;7950;42.744;23.174;2022-09-24T09:09:43;17.30;92.80
15700;DHT22;7950;42.744;23.174;2022-09-24T09:12:17;17.50;92.00
15700;DHT22;7950;42.744;23.174;2022-09-24T09:14:51;17.60;90.50
15700;DHT22;7950;42.744;23.174;2022-09-24T09:17:52;17.70;89.30
15700;DHT22;7950;42.744;23.174;2022-09-24T09:20:29;17.80;78.30
15700;DHT22;7950;42.744;23.174;2022-09-24T09:23:01;17.80;72.70
15700;DHT22;7950;42.744;23.174;2022-09-24T09:25:34;17.80;73.10
15700;DHT22;7950;42.744;23.174;2022-09-24T09:28:09;17.80;72.00
15700;DHT22;7950;42.744;23.174;2022-09-24T09:30:54;17.90;72.60
15700;DHT22;7950;42.744;23.174;2022-09-24T09:33:43;18.00;71.00
15700;DHT22;7950;42.744;23.174;2022-09-24T09:36:31;18.20;68.50
15700;DHT22;7950;42.744;23.174;2022-09-24T09:39:06;18.30;68.50
15700;DHT22;7950;42.744;23.174;2022-09-24T09:41:48;18.40;67.10
15700;DHT22;7950;42.744;23.174;2022-09-24T09:44:24;18.40;68.40
15700;DHT22;7950;42.744;23.174;2022-09-24T09:46:56;18.50;66.60
15700;DHT22;7950;42.744;23.174;2022-09-24T09:49:32;18.20;66.70
15700;DHT22;7950;42.744;23.174;2022-09-24T09:52:10;18.20;67.50
15700;DHT22;7950;42.744;23.174;2022-09-24T09:54:40;18.20;67.60
15700;DHT22;7950;42.744;23.174;2022-09-24T09:57:13;18.40;67.20
15700;DHT22;7950;42.744;23.174;2022-09-24T09:59:45;18.30;67.10
15700;DHT22;7950;42.744;23.174;2022-09-24T10:02:21;18.30;65.10
15700;DHT22;7950;42.744;23.174;2022-09-24T10:04:53;18.40;65.10
15700;DHT22;7950;42.744;23.174;2022-09-24T10:07:23;18.50;64.50
15700;DHT22;7950;42.744;23.174;2022-09-24T10:10:15;18.40;62.90
15700;DHT22;7950;42.744;23.174;2022-09-24T10:12:44;18.40;63.60
15700;DHT22;7950;42.744;23.174;2022-09-24T10:15:17;18.50;65.50
15700;DHT22;7950;42.744;23.174;2022-09-24T10:17:48;18.50;64.70
15700;DHT22;7950;42.744;23.174;2022-09-24T10:20:21;18.60;62.50
15700;DHT22;7950;42.744;23.174;2022-09-24T10:22:52;18.60;62.00
15700;DHT22;7950;42.744;23.174;2022-09-24T10:25:23;18.60;63.20
15700;DHT22;7950;42.744;23.174;2022-09-24T10:27:55;18.70;63.90
15700;DHT22;7950;42.744;23.174;2022-09-24T10:30:53;18.80;63.20
15700;DHT22;7950;42.744;23.174;2022-09-24T10:33:23;18.90;62.20
15700;DHT22;7950;42.744;23.174;2022-09-24T10:36:03;19.00;61.20
15700;DHT22;7950;42.744;23.174;2022-09-24T10:38:34;19.00;60.70
15700;DHT22;7950;42.744;23.174;2022-09-24T10:41:19;19.10;61.50
15700;DHT22;7950;42.744;23.174;2022-09-24T10:43:50;19.20;61.80
15700;DHT22;7950;42.744;23.174;2022-09-24T10:46:35;19.20;61.40
15700;DHT22;7950;42.744;23.174;2022-09-24T10:49:13;19.20;61.90
15700;DHT22;7950;42.744;23.174;2022-09-24T10:51:48;19.10;61.50
15700;DHT22;7950;42.744;23.174;2022-09-24T10:54:32;19.00;61.80
15700;DHT22;7950;42.744;23.174;2022-09-24T10:57:09;18.90;60.10
15700;DHT22;7950;42.744;23.174;2022-09-24T10:59:47;18.90;60.90
15700;DHT22;7950;42.744;23.174;2022-09-24T11:05:21;19.20;62.80
15700;DHT22;7950;42.744;23.174;2022-09-24T11:08:10;19.20;60.90
15700;DHT22;7950;42.744;23.174;2022-09-24T11:11:13;19.40;62.20
15700;DHT22;7950;42.744;23.174;2022-09-24T11:13:53;19.50;61.70
15700;DHT22;7950;42.744;23.174;2022-09-24T11:19:35;19.50;61.10
15700;DHT22;7950;42.744;23.174;2022-09-24T11:22:12;19.60;61.40
15700;DHT22;7950;42.744;23.174;2022-09-24T11:27:50;19.70;59.60
15700;DHT22;7950;42.744;23.174;2022-09-24T11:30:24;19.80;61.40
15700;DHT22;7950;42.744;23.174;2022-09-24T11:33:02;19.90;61.70
15700;DHT22;7950;42.744;23.174;2022-09-24T11:35:52;20.20;61.80
15700;DHT22;7950;42.744;23.174;2022-09-24T11:38:33;20.30;61.10
15700;DHT22;7950;42.744;23.174;2022-09-24T11:41:15;20.30;59.70
15700;DHT22;7950;42.744;23.174;2022-09-24T11:44:04;20.20;59.50
15700;DHT22;7950;42.744;23.174;2022-09-24T11:46:47;20.10;59.50
15700;DHT22;7950;42.744;23.174;2022-09-24T11:49:32;20.20;59.80
15700;DHT22;7950;42.744;23.174;2022-09-24T11:52:14;20.20;59.40
15700;DHT22;7950;42.744;23.174;2022-09-24T11:54:55;20.00;58.80
15700;DHT22;7950;42.744;23.174;2022-09-24T11:57:28;19.80;58.90
15700;DHT22;7950;42.744;23.174;2022-09-24T12:00:02;19.80;59.20
15700;DHT22;7950;42.744;23.174;2022-09-24T12:02:36;19.90;59.70
15700;DHT22;7950;42.744;23.174;2022-09-24T12:05:07;20.20;60.10
15700;DHT22;7950;42.744;23.174;2022-09-24T12:07:44;20.20;59.40
15700;DHT22;7950;42.744;23.174;2022-09-24T12:10:24;20.30;59.90
15700;DHT22;7950;42.744;23.174;2022-09-24T12:12:58;20.50;59.50
15700;DHT22;7950;42.744;23.174;2022-09-24T12:15:36;20.40;58.80
15700;DHT22;7950;42.744;23.174;2022-09-24T12:18:11;20.40;57.60
15700;DHT22;7950;42.744;23.174;2022-09-24T12:20:46;20.30;58.60
15700;DHT22;7950;42.744;23.174;2022-09-24T12:23:20;20.30;59.80
15700;DHT22;7950;42.744;23.174;2022-09-24T12:25:49;20.40;59.00
15700;DHT22;7950;42.744;23.174;2022-09-24T12:28:20;20.40;59.10
15700;DHT22;7950;42.744;23.174;2022-09-24T12:31:13;20.40;57.80
15700;DHT22;7950;42.744;23.174;2022-09-24T12:34:06;20.40;57.90
15700;DHT22;7950;42.744;23.174;2022-09-24T12:36:46;20.50;57.30
15700;DHT22;7950;42.744;23.174;2022-09-24T12:39:26;20.60;58.40
15700;DHT22;7950;42.744;23.174;2022-09-24T12:41:58;20.70;58.90
15700;DHT22;7950;42.744;23.174;2022-09-24T12:44:39;20.90;58.00
15700;DHT22;7950;42.744;23.174;2022-09-24T12:47:17;21.00;59.80
15700;DHT22;7950;42.744;23.174;2022-09-24T12:49:52;21.20;58.50
15700;DHT22;7950;42.744;23.174;2022-09-24T12:52:24;21.30;58.60
15700;DHT22;7950;42.744;23.174;2022-09-24T12:54:56;21.40;56.90
15700;DHT22;7950;42.744;23.174;2022-09-24T12:57:34;21.40;56.30
15700;DHT22;7950;42.744;23.174;2022-09-24T13:00:31;21.30;56.40
15700;DHT22;7950;42.744;23.174;2022-09-24T13:02:56;21.20;57.10
15700;DHT22;7950;42.744;23.174;2022-09-24T13:05:28;21.10;57.00
15700;DHT22;7950;42.744;23.174;2022-09-24T13:08:00;21.20;57.40
15700;DHT22;7950;42.744;23.174;2022-09-24T13:10:31;21.20;57.20
15700;DHT22;7950;42.744;23.174;2022-09-24T13:13:00;21.30;58.00
15700;DHT22;7950;42.744;23.174;2022-09-24T13:15:32;21.40;56.90
15700;DHT22;7950;42.744;23.174;2022-09-24T13:18:05;21.30;55.40
15700;DHT22;7950;42.744;23.174;2022-09-24T13:20:36;21.20;56.20
15700;DHT22;7950;42.744;23.174;2022-09-24T13:23:14;21.30;55.70
15700;DHT22;7950;42.744;23.174;2022-09-24T13:25:59;21.20;55.40
15700;DHT22;7950;42.744;23.174;2022-09-24T13:28:31;21.00;55.30
15700;DHT22;7950;42.744;23.174;2022-09-24T13:31:26;20.90;55.80
15700;DHT22;7950;42.744;23.174;2022-09-24T13:34:02;21.00;56.50
15700;DHT22;7950;42.744;23.174;2022-09-24T13:36:35;21.00;55.70
15700;DHT22;7950;42.744;23.174;2022-09-24T13:39:12;21.00;55.90
15700;DHT22;7950;42.744;23.174;2022-09-24T13:41:49;21.00;57.40
15700;DHT22;7950;42.744;23.174;2022-09-24T13:44:25;21.00;56.60
15700;DHT22;7950;42.744;23.174;2022-09-24T13:46:58;20.90;56.40
15700;DHT22;7950;42.744;23.174;2022-09-24T13:49:29;20.80;56.10
15700;DHT22;7950;42.744;23.174;2022-09-24T13:52:07;20.80;56.00
15700;DHT22;7950;42.744;23.174;2022-09-24T13:54:47;20.80;55.10
15700;DHT22;7950;42.744;23.174;2022-09-24T13:57:21;20.70;55.80
15700;DHT22;7950;42.744;23.174;2022-09-24T14:00:11;20.60;57.90
15700;DHT22;7950;42.744;23.174;2022-09-24T14:02:43;20.50;58.20
15700;DHT22;7950;42.744;23.174;2022-09-24T14:05:16;20.40;58.20
15700;DHT22;7950;42.744;23.174;2022-09-24T14:07:56;20.30;57.80
15700;DHT22;7950;42.744;23.174;2022-09-24T14:10:26;20.20;57.90
15700;DHT22;7950;42.744;23.174;2022-09-24T14:13:18;20.00;58.30
15700;DHT22;7950;42.744;23.174;2022-09-24T14:15:55;19.90;58.90
15700;DHT22;7950;42.744;23.174;2022-09-24T14:18:25;19.90;58.90
15700;DHT22;7950;42.744;23.174;2022-09-24T14:20:59;19.80;59.80
15700;DHT22;7950;42.744;23.174;2022-09-24T14:23:35;19.70;60.50
15700;DHT22;7950;42.744;23.174;2022-09-24T14:26:05;19.60;60.50
15700;DHT22;7950;42.744;23.174;2022-09-24T14:28:34;19.60;60.30
15700;DHT22;7950;42.744;23.174;2022-09-24T14:31:06;19.60;61.10
15700;DHT22;7950;42.744;23.174;2022-09-24T14:33:36;19.60;62.00
15700;DHT22;7950;42.744;23.174;2022-09-24T14:36:09;19.60;63.00
15700;DHT22;7950;42.744;23.174;2022-09-24T14:38:48;19.60;63.70
15700;DHT22;7950;42.744;23.174;2022-09-24T14:41:21;19.50;65.10
15700;DHT22;7950;42.744;23.174;2022-09-24T14:43:53;19.60;65.60
15700;DHT22;7950;42.744;23.174;2022-09-24T14:46:24;19.60;65.70
15700;DHT22;7950;42.744;23.174;2022-09-24T14:49:04;19.60;65.70
15700;DHT22;7950;42.744;23.174;2022-09-24T14:51:34;19.60;64.40
15700;DHT22;7950;42.744;23.174;2022-09-24T14:54:18;19.70;64.50
15700;DHT22;7950;42.744;23.174;2022-09-24T14:56:47;19.70;64.50
15700;DHT22;7950;42.744;23.174;2022-09-24T14:59:27;19.70;64.80
15700;DHT22;7950;42.744;23.174;2022-09-24T15:02:04;19.80;64.80
15700;DHT22;7950;42.744;23.174;2022-09-24T15:04:39;19.80;64.50
15700;DHT22;7950;42.744;23.174;2022-09-24T15:07:15;19.70;65.80
15700;DHT22;7950;42.744;23.174;2022-09-24T15:09:48;19.70;65.90
15700;DHT22;7950;42.744;23.174;2022-09-24T15:12:19;19.70;65.30
15700;DHT22;7950;42.744;23.174;2022-09-24T15:14:56;19.70;65.30
15700;DHT22;7950;42.744;23.174;2022-09-24T15:17:29;19.60;65.50
15700;DHT22;7950;42.744;23.174;2022-09-24T15:19:58;19.60;65.80
15700;DHT22;7950;42.744;23.174;2022-09-24T15:22:29;19.50;66.80
15700;DHT22;7950;42.744;23.174;2022-09-24T15:24:58;19.30;66.40
15700;DHT22;7950;42.744;23.174;2022-09-24T15:27:29;19.20;66.70
15700;DHT22;7950;42.744;23.174;2022-09-24T15:29:59;19.10;66.90
15700;DHT22;7950;42.744;23.174;2022-09-24T15:32:29;19.00;66.70
15700;DHT22;7950;42.744;23.174;2022-09-24T15:34:58;18.90;66.80
15700;DHT22;7950;42.744;23.174;2022-09-24T15:37:29;18.80;66.80
15700;DHT22;7950;42.744;23.174;2022-09-24T15:40:04;18.70;67.20
15700;DHT22;7950;42.744;23.174;2022-09-24T15:42:33;18.50;67.90
15700;DHT22;7950;42.744;23.174;2022-09-24T15:45:01;18.40;68.40
15700;DHT22;7950;42.744;23.174;2022-09-24T15:47:30;18.30;68.50
15700;DHT22;7950;42.744;23.174;2022-09-24T15:49:58;18.20;69.00
15700;DHT22;7950;42.744;23.174;2022-09-24T15:52:29;18.00;69.60
15700;DHT22;7950;42.744;23.174;2022-09-24T15:55:01;17.90;70.10
15700;DHT22;7950;42.744;23.174;2022-09-24T15:57:56;17.80;71.20
15700;DHT22;7950;42.744;23.174;2022-09-24T16:00:25;17.60;72.10
15700;DHT22;7950;42.744;23.174;2022-09-24T16:02:55;17.40;72.90
15700;DHT22;7950;42.744;23.174;2022-09-24T16:05:25;17.30;73.60
15700;DHT22;7950;42.744;23.174;2022-09-24T16:07:55;17.10;74.40
15700;DHT22;7950;42.744;23.174;2022-09-24T16:10:23;17.00;75.40
15700;DHT22;7950;42.744;23.174;2022-09-24T16:12:52;16.80;76.60
15700;DHT22;7950;42.744;23.174;2022-09-24T16:15:20;16.70;77.70
15700;DHT22;7950;42.744;23.174;2022-09-24T16:17:48;16.60;80.50
15700;DHT22;7950;42.744;23.174;2022-09-24T16:20:17;16.50;83.80
15700;DHT22;7950;42.744;23.174;2022-09-24T16:22:45;16.30;86.10
15700;DHT22;7950;42.744;23.174;2022-09-24T16:25:15;16.20;87.90
15700;DHT22;7950;42.744;23.174;2022-09-24T16:27:43;16.00;90.00
15700;DHT22;7950;42.744;23.174;2022-09-24T16:30:12;15.90;92.70